Gold Hill, North Carolina
Current Conditions -  °F | °C
As of 5:35 PM on Wednesday 22 Oct 2014 (Local Time) from KVUJ Reporting Station
Clear Clear  
Wind Chill: 63°   Ceiling: Unl
Heat Index: 63°   Visibility: 10mi
Dew Point: 41°   Wind: 13mph
Humidity: 45%   Direction: 340°NNW
Pressure: 30.06"   Gusts: 18mph
Location:  35.52°N, 80.34°W
Report Text: KVUJ 222135Z AUTO 34011G16KT 10SM CLR 17/05 A3006 RMK AO2 T01700050
Loading
Personal Weather Stations






























Interactive Weather Map
Tropical Storm Tracking
New forecast layout! Learn more

10-Day Weather Forecast

Advertisements
Track Severe Weather on mobile